Time;durP1;ratioP1;P1;durP2;ratioP2;P2;SDS_P1;SDS_P2;PMS_P1;PMS_P2;Temp;Humidity;BMP_temperature;BMP_pressure;BME280_temperature;BME280_humidity;BME280_pressure;Samples;Min_cycle;Max_cycle;Signal;HPM_P1;HPM_P2
2022/02/22 00:00:28;;;;;;;26.43;22.67;;;;;;;8.71;73.40;100251.50;2097881;28;20176;-66
2022/02/22 00:01:29;;;;;;;28.40;22.70;;;;;;;7.73;73.60;100110.03;2097630;28;20214;-66
2022/02/22 00:02:29;;;;;;;26.20;22.57;;;;;;;8.68;74.04;100275.25;2097822;28;20203;-66
2022/02/22 00:03:32;;;;;;;26.77;23.17;;;;;;;8.67;74.02;100281.97;2097784;28;20211;-66
2022/02/22 00:04:36;;;;;;;24.77;21.63;;;;;;;8.66;74.10;100277.66;2097888;28;20685;-66
2022/02/22 00:05:38;;;;;;;26.75;22.80;;;;;;;8.79;73.64;100272.25;2097718;28;20210;-66
2022/02/22 00:06:39;;;;;;;25.80;22.55;;;;;;;8.73;73.82;100277.50;2097261;28;20202;-66
2022/02/22 00:07:40;;;;;;;27.07;22.67;;;;;;;8.86;73.68;100277.63;2097789;28;20198;-66
2022/02/22 00:08:40;;;;;;;28.33;23.48;;;;;;;8.80;73.75;100287.59;2097800;28;20184;-66
2022/02/22 00:09:41;;;;;;;27.90;22.50;;;;;;;8.75;73.59;100275.09;2097023;28;20176;-66
2022/02/22 00:10:41;;;;;;;26.57;21.67;;;;;;;8.79;73.90;100277.75;2097661;28;20664;-66
2022/02/22 00:11:42;;;;;;;26.50;22.13;;;;;;;8.84;73.58;100272.53;2097680;28;20183;-66
2022/02/22 00:12:43;;;;;;;25.03;21.10;;;;;;;8.87;73.38;100285.47;2097780;28;20220;-66
2022/02/22 00:13:44;;;;;;;26.90;21.35;;;;;;;8.85;73.84;100276.03;2097609;28;20179;-66
2022/02/22 00:14:44;;;;;;;25.73;21.73;;;;;;;8.83;73.58;100278.47;2097782;28;20685;-66
2022/02/22 00:15:45;;;;;;;27.13;21.53;;;;;;;8.77;73.90;100286.47;2097716;28;20207;-66
2022/02/22 00:16:45;;;;;;;27.73;22.37;;;;;;;8.66;73.71;100260.31;2097074;28;20207;-66
2022/02/22 00:17:46;;;;;;;26.03;21.37;;;;;;;8.77;73.77;100278.19;2097564;28;20573;-66
2022/02/22 00:18:46;;;;;;;26.07;20.63;;;;;;;8.83;73.80;100276.50;2097392;28;20237;-66
2022/02/22 00:19:47;;;;;;;27.37;21.43;;;;;;;8.88;73.90;100281.53;2097055;28;20187;-66
2022/02/22 00:20:47;;;;;;;25.83;21.37;;;;;;;8.88;73.55;100287.03;2097729;28;20191;-66
2022/02/22 00:21:48;;;;;;;24.40;21.37;;;;;;;8.91;73.61;100261.28;2097563;28;20662;-66
2022/02/22 00:22:49;;;;;;;25.15;20.10;;;;;;;8.94;73.38;100279.00;2097633;28;20206;-66
2022/02/22 00:23:50;;;;;;;27.80;21.07;;;;;;;8.93;73.73;100272.72;2097674;28;20188;-66
2022/02/22 00:24:50;;;;;;;25.37;21.00;;;;;;;8.88;73.64;100278.75;2097698;28;20844;-66
2022/02/22 00:25:51;;;;;;;25.57;21.10;;;;;;;8.98;74.02;100277.72;2097809;28;20191;-66
2022/02/22 00:26:51;;;;;;;25.13;20.73;;;;;;;8.97;73.94;100275.41;2097133;28;20317;-66
2022/02/22 00:27:52;;;;;;;25.27;21.27;;;;;;;8.94;73.83;100267.94;2097633;28;20270;-66
2022/02/22 00:28:52;;;;;;;27.20;21.63;;;;;;;8.85;74.05;100248.41;2093522;28;20673;-66
2022/02/22 00:29:54;;;;;;;24.53;21.53;;;;;;;8.99;74.08;100264.69;2089221;28;20191;-66
2022/02/22 00:30:54;;;;;;;25.02;20.83;;;;;;;8.94;74.37;100274.28;2089347;28;20194;-66
2022/02/22 00:31:55;;;;;;;25.80;21.77;;;;;;;8.89;74.36;100255.44;2089337;28;20189;-66
2022/02/22 00:32:56;;;;;;;26.53;21.57;;;;;;;8.94;73.88;100270.72;2089350;28;20233;-66
2022/02/22 00:33:56;;;;;;;24.65;21.60;;;;;;;9.02;74.06;100261.81;2089281;28;20251;-66
2022/02/22 00:34:57;;;;;;;25.60;22.33;;;;;;;9.06;73.75;100268.06;2089423;28;20187;-66
2022/02/22 00:35:57;;;;;;;27.53;21.93;;;;;;;9.10;73.77;100265.19;2088976;28;20172;-66
2022/02/22 00:36:58;;;;;;;25.60;21.43;;;;;;;9.12;73.23;100262.81;2089275;28;20565;-66
2022/02/22 00:37:58;;;;;;;24.43;21.53;;;;;;;9.19;73.32;100262.63;2089437;28;20180;-66
2022/02/22 00:38:59;;;;;;;24.87;22.07;;;;;;;9.27;73.27;100262.03;2088598;28;20186;-66
2022/02/22 00:39:59;;;;;;;23.97;20.77;;;;;;;9.32;72.93;100261.50;2089334;28;20180;-66
2022/02/22 00:41:00;;;;;;;26.43;21.17;;;;;;;9.25;73.14;100264.44;2088817;28;20732;-66
2022/02/22 00:42:00;;;;;;;27.40;21.57;;;;;;;9.27;73.37;100267.53;2088339;28;20246;-66
2022/02/22 00:43:01;;;;;;;25.13;20.97;;;;;;;9.17;73.16;100249.22;2089059;28;20180;-66
2022/02/22 00:44:02;;;;;;;23.67;20.47;;;;;;;9.33;73.25;100265.81;2089213;28;20186;-66
2022/02/22 00:45:04;;;;;;;25.23;20.67;;;;;;;9.28;73.43;100265.56;2089313;28;20631;-66
2022/02/22 00:46:05;;;;;;;27.70;21.90;;;;;;;9.24;73.35;100265.66;2088600;28;20194;-66
2022/02/22 00:47:05;;;;;;;26.47;21.80;;;;;;;9.03;73.51;100224.69;2089282;28;20669;-66
2022/02/22 00:48:06;;;;;;;28.10;21.23;;;;;;;9.21;73.58;100238.06;2091919;28;20192;-66
2022/02/22 00:49:08;;;;;;;23.73;20.63;;;;;;;8.96;73.30;100188.19;2096495;28;20191;-66
2022/02/22 00:50:09;;;;;;;25.27;19.48;;;;;;;9.35;73.20;100246.81;2097566;28;20632;-66
2022/02/22 00:51:09;;;;;;;24.30;19.97;;;;;;;9.31;72.88;100234.28;2097602;28;20185;-66
2022/02/22 00:52:10;;;;;;;24.37;19.40;;;;;;;9.56;72.84;100264.84;2088680;28;20187;-66
2022/02/22 00:53:10;;;;;;;23.50;19.13;;;;;;;9.56;72.96;100262.09;2088667;28;20250;-66
2022/02/22 00:54:11;;;;;;;20.80;18.10;;;;;;;9.57;72.38;100258.09;2097523;28;20180;-66
2022/02/22 00:55:12;;;;;;;22.23;19.33;;;;;;;9.59;72.55;100264.75;2097520;28;20673;-66
2022/02/22 00:56:12;;;;;;;24.80;19.50;;;;;;;9.66;72.25;100261.84;2096807;28;20706;-66
2022/02/22 00:57:13;;;;;;;22.70;19.20;;;;;;;8.95;71.50;100150.66;2097348;28;20227;-66
2022/02/22 00:58:13;;;;;;;20.77;18.23;;;;;;;9.75;71.49;100267.53;2097530;28;20255;-66
2022/02/22 00:59:14;;;;;;;21.37;18.90;;;;;;;9.63;71.51;100256.41;2096815;28;20198;-66
2022/02/22 01:00:15;;;;;;;23.57;19.37;;;;;;;9.67;71.88;100276.44;2097524;28;20234;-66
2022/02/22 01:01:16;;;;;;;22.50;18.73;;;;;;;9.64;71.82;100266.25;2097281;28;20180;-66
2022/02/22 01:02:17;;;;;;;21.42;19.02;;;;;;;9.71;71.93;100271.59;2097553;28;20189;-66
2022/02/22 01:03:17;;;;;;;24.90;18.80;;;;;;;9.74;71.80;100271.50;2097467;28;20192;-66
2022/02/22 01:04:18;;;;;;;25.40;19.17;;;;;;;9.78;71.55;100274.94;2088562;28;20338;-66
2022/02/22 01:05:18;;;;;;;21.77;18.07;;;;;;;9.81;71.46;100271.31;2088554;28;20745;-66
2022/02/22 01:06:19;;;;;;;26.23;20.13;;;;;;;9.84;71.53;100273.19;2096848;28;20191;-66
2022/02/22 01:07:20;;;;;;;25.67;20.40;;;;;;;9.89;71.51;100267.13;2097436;28;20616;-66
2022/02/22 01:08:21;;;;;;;22.63;18.60;;;;;;;9.92;71.29;100282.88;2097402;28;20569;-66
2022/02/22 01:09:22;;;;;;;21.90;17.80;;;;;;;9.66;71.14;100227.84;2096502;28;20184;-66
2022/02/22 01:10:23;;;;;;;21.45;17.88;;;;;;;10.02;71.06;100264.44;2097362;28;20250;-66
2022/02/22 01:11:23;;;;;;;20.03;16.80;;;;;;;9.97;71.02;100264.97;2088437;28;20227;-66
2022/02/22 01:12:24;;;;;;;20.73;16.67;;;;;;;10.00;70.77;100262.09;2088545;28;20248;-66
2022/02/22 01:13:25;;;;;;;21.50;17.57;;;;;;;10.04;70.88;100259.28;2097481;28;20598;-66
2022/02/22 01:14:25;;;;;;;22.43;17.60;;;;;;;10.02;70.45;100247.81;2097438;28;20683;-66
2022/02/22 01:15:26;;;;;;;20.23;17.80;;;;;;;10.04;70.59;100259.28;2097455;28;20545;-66
2022/02/22 01:16:27;;;;;;;19.13;17.00;;;;;;;8.73;70.53;100056.50;2096791;28;20280;-66
2022/02/22 01:17:27;;;;;;;21.67;17.87;;;;;;;9.83;70.91;100252.28;2097196;28;20259;-66
2022/02/22 01:18:28;;;;;;;21.57;17.77;;;;;;;9.81;71.08;100249.19;2097416;28;20201;-66
2022/02/22 01:19:28;;;;;;;20.27;17.20;;;;;;;9.88;71.02;100260.06;2096735;28;20611;-66
2022/02/22 01:20:29;;;;;;;21.20;18.07;;;;;;;9.94;70.76;100252.78;2097403;28;20557;-66
2022/02/22 01:21:32;;;;;;;22.60;18.07;;;;;;;9.89;70.81;100247.00;2097443;28;20537;-66
2022/02/22 01:22:34;;;;;;;22.73;17.77;;;;;;;9.92;70.69;100266.28;2097476;28;20244;-66
2022/02/22 01:23:34;;;;;;;22.88;18.38;;;;;;;9.92;70.81;100266.28;2097246;28;20830;-66
2022/02/22 01:24:35;;;;;;;18.90;16.87;;;;;;;9.95;70.69;100261.84;2097340;28;20253;-66
2022/02/22 01:25:35;;;;;;;21.60;17.77;;;;;;;9.95;70.61;100273.69;2097357;28;20219;-66
2022/02/22 01:26:36;;;;;;;21.63;18.10;;;;;;;9.98;70.36;100280.34;2096808;28;20670;-66
2022/02/22 01:27:39;;;;;;;18.77;16.73;;;;;;;10.03;69.86;100272.31;2097378;28;20223;-66
2022/02/22 01:28:40;;;;;;;19.75;17.23;;;;;;;9.99;69.73;100281.94;2095561;28;20510;-66
2022/02/22 01:29:40;;;;;;;20.70;16.83;;;;;;;9.99;69.98;100276.38;2088229;28;20649;-66
2022/02/22 01:30:41;;;;;;;21.00;17.37;;;;;;;10.00;70.18;100277.94;2089154;28;20194;-66
2022/02/22 01:31:41;;;;;;;20.03;17.90;;;;;;;9.98;70.47;100277.56;2080110;28;20190;-66
2022/02/22 01:32:42;;;;;;;19.23;16.53;;;;;;;9.96;70.49;100280.81;2080367;28;20239;-66
2022/02/22 01:33:42;;;;;;;21.27;17.50;;;;;;;9.78;70.93;100263.88;2089120;28;20210;-66
2022/02/22 01:34:43;;;;;;;20.73;17.73;;;;;;;9.72;71.16;100268.38;2089138;28;20189;-66
2022/02/22 01:35:43;;;;;;;20.50;17.33;;;;;;;9.76;70.99;100274.63;2089096;28;20188;-66
2022/02/22 01:36:45;;;;;;;19.53;17.37;;;;;;;9.82;71.33;100277.63;2088394;28;20216;-66
2022/02/22 01:37:45;;;;;;;19.63;17.08;;;;;;;9.73;71.28;100274.72;2089004;28;20209;-66
2022/02/22 01:38:46;;;;;;;21.20;17.70;;;;;;;9.75;71.52;100277.81;2088853;28;20201;-66
2022/02/22 01:39:47;;;;;;;19.83;16.93;;;;;;;9.53;71.44;100235.31;2088590;28;20188;-66
2022/02/22 01:40:47;;;;;;;21.03;17.33;;;;;;;9.71;71.73;100268.81;2080183;28;20698;-66
2022/02/22 01:41:48;;;;;;;20.97;17.73;;;;;;;9.71;71.75;100268.81;2080030;28;20343;-66
2022/02/22 01:42:48;;;;;;;21.97;17.43;;;;;;;9.68;72.03;100276.00;2089106;28;20194;-66
2022/02/22 01:43:49;;;;;;;22.77;18.80;;;;;;;9.63;72.41;100268.22;2088997;28;20282;-66
2022/02/22 01:44:50;;;;;;;22.20;18.27;;;;;;;9.57;72.34;100272.72;2080252;28;20312;-66
2022/02/22 01:45:51;;;;;;;23.50;17.80;;;;;;;7.69;72.78;99991.53;2080290;28;20538;-66
2022/02/22 01:47:00;;;;;;;20.57;17.40;;;;;;;9.35;73.61;100259.84;2080427;28;20267;-66
2022/02/22 01:48:01;;;;;;;22.95;18.67;;;;;;;9.42;73.74;100274.28;2082601;28;20177;-66
2022/02/22 01:49:01;;;;;;;21.87;18.73;;;;;;;9.00;73.79;100219.25;2095125;28;20198;-66
2022/02/22 01:50:03;;;;;;;21.17;18.80;;;;;;;9.29;73.75;100265.16;2097489;28;20278;-66
2022/02/22 01:51:04;;;;;;;22.10;19.20;;;;;;;9.38;74.20;100270.06;2097612;28;20192;-66
2022/02/22 01:52:05;;;;;;;21.77;19.13;;;;;;;8.67;73.92;100165.19;2097215;28;20193;-66
2022/02/22 01:53:05;;;;;;;20.73;17.87;;;;;;;9.44;73.94;100288.44;2098383;28;20249;-66
2022/02/22 01:54:06;;;;;;;21.90;18.60;;;;;;;9.42;74.10;100268.75;2098830;28;20657;-66
2022/02/22 01:55:07;;;;;;;21.43;17.80;;;;;;;8.69;73.78;100171.84;2098797;28;20180;-66
2022/02/22 01:56:09;;;;;;;20.25;17.27;;;;;;;8.96;73.94;100244.22;2098242;28;20192;-66
2022/02/22 01:57:10;;;;;;;22.17;18.70;;;;;;;9.21;74.15;100255.47;2098635;28;20215;-66
2022/02/22 01:58:11;;;;;;;23.50;19.00;;;;;;;9.31;74.43;100281.28;2089780;28;20194;-66
2022/02/22 01:59:12;;;;;;;23.17;18.97;;;;;;;9.23;74.51;100279.91;2089188;28;20352;-66
2022/02/22 02:00:14;;;;;;;22.33;18.20;;;;;;;9.22;74.73;100281.13;2098822;28;20187;-66
2022/02/22 02:01:15;;;;;;;22.20;18.63;;;;;;;9.27;74.74;100273.06;2098796;28;20183;-66
2022/02/22 02:02:15;;;;;;;22.40;18.93;;;;;;;9.29;74.54;100278.97;2098793;28;20183;-66
2022/02/22 02:03:16;;;;;;;20.77;17.87;;;;;;;9.29;74.30;100269.88;2098909;28;20217;-66
2022/02/22 02:04:17;;;;;;;21.37;18.80;;;;;;;8.85;74.22;100206.97;2098790;28;20187;-66
2022/02/22 02:05:17;;;;;;;22.97;19.10;;;;;;;9.31;74.30;100276.53;2098618;28;20246;-66
2022/02/22 02:06:18;;;;;;;24.73;19.00;;;;;;;9.37;74.01;100272.03;2098391;28;20191;-66
2022/02/22 02:07:19;;;;;;;23.27;17.97;;;;;;;9.37;74.26;100274.06;2098718;28;20234;-66
2022/02/22 02:08:19;;;;;;;22.27;18.67;;;;;;;9.40;73.98;100278.69;2098675;28;20997;-66
2022/02/22 02:09:20;;;;;;;21.40;17.63;;;;;;;9.42;73.83;100270.75;2098081;28;20187;-66
2022/02/22 02:10:20;;;;;;;23.23;18.60;;;;;;;9.37;73.98;100277.56;2098675;28;20197;-66
2022/02/22 02:11:21;;;;;;;19.97;17.50;;;;;;;9.31;74.16;100261.94;2098695;28;20187;-66
2022/02/22 02:12:21;;;;;;;20.93;18.00;;;;;;;9.44;74.00;100271.09;2098726;28;20191;-66
2022/02/22 02:13:22;;;;;;;20.30;17.73;;;;;;;9.45;73.55;100280.94;2089687;28;20261;-66
2022/02/22 02:14:24;;;;;;;20.73;17.53;;;;;;;9.34;73.75;100280.44;2089936;28;20186;-66
2022/02/22 02:15:25;;;;;;;20.80;17.37;;;;;;;9.36;74.05;100280.78;2098566;28;20269;-66
2022/02/22 02:16:25;;;;;;;20.47;16.83;;;;;;;9.39;73.96;100282.69;2098146;28;20415;-66
2022/02/22 02:17:26;;;;;;;21.40;18.07;;;;;;;9.19;73.68;100251.56;2098515;28;20190;-66
2022/02/22 02:18:26;;;;;;;20.37;16.93;;;;;;;9.32;73.75;100267.03;2098655;28;20210;-66
2022/02/22 02:19:27;;;;;;;19.20;17.17;;;;;;;9.27;73.59;100253.72;2097698;28;20196;-66
2022/02/22 02:20:27;;;;;;;17.93;15.40;;;;;;;9.42;73.78;100276.28;2098646;28;20185;-66
2022/02/22 02:21:28;;;;;;;20.60;17.37;;;;;;;9.36;73.80;100270.50;2098525;28;20190;-66
2022/02/22 02:22:28;;;;;;;21.90;18.13;;;;;;;9.36;73.70;100273.25;2093378;28;20676;-66
2022/02/22 02:23:29;;;;;;;20.50;17.07;;;;;;;8.01;73.58;100066.09;2090278;28;20189;-66
2022/02/22 02:24:29;;;;;;;20.53;16.77;;;;;;;9.28;74.10;100263.56;2090249;28;20182;-66
2022/02/22 02:25:30;;;;;;;20.30;17.43;;;;;;;9.32;73.90;100278.09;2090455;28;20193;-66
2022/02/22 02:26:30;;;;;;;19.07;16.77;;;;;;;9.30;73.99;100268.66;2089684;28;20201;-66
2022/02/22 02:27:32;;;;;;;19.33;15.90;;;;;;;9.24;73.75;100262.91;2090407;28;20205;-66
2022/02/22 02:28:33;;;;;;;18.77;16.40;;;;;;;9.34;74.12;100272.94;2090978;28;20186;-66
2022/02/22 02:29:33;;;;;;;20.30;16.90;;;;;;;9.29;73.97;100269.88;2097710;28;20416;-66
2022/02/22 02:30:34;;;;;;;19.07;16.27;;;;;;;9.20;74.12;100262.19;2098694;28;20675;-66
2022/02/22 02:31:38;;;;;;;20.13;16.27;;;;;;;9.32;74.22;100272.56;2098486;28;20191;-66
2022/02/22 02:32:39;;;;;;;18.47;16.17;;;;;;;8.86;73.90;100201.03;2098562;28;20182;-66
2022/02/22 02:33:39;;;;;;;17.97;16.07;;;;;;;9.46;73.49;100282.50;2098518;28;20923;-66
2022/02/22 02:34:40;;;;;;;21.60;16.40;;;;;;;9.45;73.73;100278.97;2098457;28;20229;-66
2022/02/22 02:35:41;;;;;;;17.67;15.77;;;;;;;9.46;73.63;100282.50;2098605;28;20182;-66
2022/02/22 02:36:43;;;;;;;18.80;16.63;;;;;;;9.49;73.47;100284.41;2097776;28;20205;-66
2022/02/22 02:37:43;;;;;;;18.70;15.73;;;;;;;9.54;73.01;100279.13;2098530;28;20180;-66
2022/02/22 02:38:44;;;;;;;17.70;15.37;;;;;;;9.59;73.25;100278.59;2098370;28;20416;-66
2022/02/22 02:39:45;;;;;;;17.80;15.43;;;;;;;9.58;72.87;100281.81;2097956;28;20182;-66
2022/02/22 02:40:45;;;;;;;17.77;15.67;;;;;;;9.22;73.03;100228.59;2098534;28;20190;-66
2022/02/22 02:41:47;;;;;;;18.03;15.40;;;;;;;9.55;73.15;100279.91;2098102;28;20224;-66
2022/02/22 02:42:47;;;;;;;19.03;15.57;;;;;;;9.63;72.74;100278.53;2098476;28;20228;-66
2022/02/22 02:43:48;;;;;;;20.83;17.07;;;;;;;9.57;73.09;100283.00;2098207;28;20418;-66
2022/02/22 02:44:49;;;;;;;18.87;16.03;;;;;;;9.56;72.79;100282.25;2098317;28;20191;-66
2022/02/22 02:45:49;;;;;;;19.67;15.90;;;;;;;9.47;72.95;100282.06;2098500;28;20195;-66
2022/02/22 02:46:50;;;;;;;17.63;15.80;;;;;;;9.44;73.48;100282.91;2089862;28;20183;-66
2022/02/22 02:47:51;;;;;;;21.17;16.17;;;;;;;9.41;73.44;100272.75;2090578;28;20245;-66
2022/02/22 02:48:53;;;;;;;19.40;16.13;;;;;;;9.50;73.52;100283.19;2092574;28;20441;-66
2022/02/22 02:49:53;;;;;;;20.00;16.27;;;;;;;9.42;73.56;100273.50;2089958;28;20192;-66
2022/02/22 02:50:54;;;;;;;20.37;16.73;;;;;;;9.40;73.62;100270.41;2090024;28;20455;-66
2022/02/22 02:51:55;;;;;;;19.43;16.17;;;;;;;9.46;73.35;100277.75;2090086;28;20177;-66
2022/02/22 02:52:55;;;;;;;20.53;16.47;;;;;;;9.44;73.59;100273.88;2090177;28;20430;-66
2022/02/22 02:53:56;;;;;;;18.30;16.17;;;;;;;8.72;73.19;100159.91;2090034;28;20193;-66
2022/02/22 02:54:57;;;;;;;18.30;16.30;;;;;;;8.77;73.14;100153.88;2090014;28;20576;-66
2022/02/22 02:55:57;;;;;;;18.73;16.33;;;;;;;8.70;73.21;100140.22;2089615;28;20203;-66
2022/02/22 02:56:58;;;;;;;18.23;15.77;;;;;;;9.58;73.12;100271.50;2089916;28;20264;-66
2022/02/22 02:57:58;;;;;;;17.37;15.47;;;;;;;9.66;73.06;100272.91;2089858;28;20616;-66
2022/02/22 02:59:02;;;;;;;19.00;16.57;;;;;;;9.58;73.32;100259.69;2089297;28;20262;-66
2022/02/22 03:00:05;;;;;;;19.10;16.40;;;;;;;9.62;73.40;100271.41;2090059;28;20196;-66
2022/02/22 03:01:05;;;;;;;18.60;15.87;;;;;;;9.09;73.39;100192.56;2090149;28;20416;-66
2022/02/22 03:02:06;;;;;;;19.37;15.90;;;;;;;9.51;73.34;100244.03;2090065;28;20430;-66
2022/02/22 03:03:06;;;;;;;19.10;15.67;;;;;;;9.57;73.08;100256.13;2090091;28;20191;-66
2022/02/22 03:04:07;;;;;;;19.70;15.60;;;;;;;9.44;73.36;100229.63;2089636;28;20191;-66
2022/02/22 03:05:09;;;;;;;18.13;15.03;;;;;;;9.60;73.06;100254.50;2080720;28;20185;-66
2022/02/22 03:06:09;;;;;;;19.37;16.30;;;;;;;9.75;73.04;100280.56;2080824;28;20770;-66
2022/02/22 03:07:10;;;;;;;18.47;15.97;;;;;;;9.86;72.69;100287.41;2090055;28;20897;-66
2022/02/22 03:08:10;;;;;;;18.23;15.43;;;;;;;9.88;72.50;100284.97;2090037;28;20250;-66
2022/02/22 03:09:12;;;;;;;17.77;15.40;;;;;;;9.87;72.80;100285.38;2089266;28;20590;-66
2022/02/22 03:10:12;;;;;;;20.03;15.80;;;;;;;9.73;72.84;100269.19;2089824;28;20281;-66
2022/02/22 03:11:13;;;;;;;18.33;15.57;;;;;;;9.86;72.83;100289.38;2090066;28;20426;-66
2022/02/22 03:12:14;;;;;;;18.63;15.27;;;;;;;9.37;72.69;100219.50;2089925;28;20205;-66
2022/02/22 03:13:14;;;;;;;17.83;16.00;;;;;;;9.68;72.95;100264.94;2089982;28;20199;-66
2022/02/22 03:14:15;;;;;;;18.50;15.90;;;;;;;9.76;72.72;100271.84;2090042;28;20262;-66
2022/02/22 03:15:15;;;;;;;17.63;15.73;;;;;;;9.77;73.09;100287.22;2090111;28;20661;-66
2022/02/22 03:16:16;;;;;;;17.27;14.87;;;;;;;9.70;73.25;100281.09;2089287;28;20195;-66
2022/02/22 03:17:16;;;;;;;17.17;15.33;;;;;;;9.77;73.14;100289.22;2089735;28;20194;-66
2022/02/22 03:18:17;;;;;;;18.93;15.67;;;;;;;9.85;73.14;100301.66;2089951;28;20199;-66
2022/02/22 03:19:17;;;;;;;19.10;15.60;;;;;;;9.85;72.89;100302.44;2089110;28;20193;-66
2022/02/22 03:20:18;;;;;;;17.40;14.70;;;;;;;9.84;72.88;100294.59;2089980;28;20269;-66
2022/02/22 03:21:18;;;;;;;18.00;15.47;;;;;;;9.93;72.57;100303.00;2090021;28;20622;-66
2022/02/22 03:22:19;;;;;;;18.13;15.03;;;;;;;9.98;72.46;100302.50;2093521;28;20198;-66
2022/02/22 03:23:20;;;;;;;17.63;15.43;;;;;;;10.01;72.17;100299.66;2098258;28;20236;-66
2022/02/22 03:24:20;;;;;;;17.03;14.93;;;;;;;10.09;72.03;100300.28;2098092;28;20230;-66
2022/02/22 03:25:21;;;;;;;17.47;15.10;;;;;;;9.50;71.69;100209.31;2098201;28;20724;-66
2022/02/22 03:26:22;;;;;;;18.37;16.43;;;;;;;10.10;71.50;100297.03;2097580;28;20665;-66
2022/02/22 03:27:22;;;;;;;18.27;16.23;;;;;;;10.19;71.73;100297.19;2098099;28;20184;-66
2022/02/22 03:28:23;;;;;;;20.70;16.93;;;;;;;10.25;71.21;100300.22;2098163;28;20197;-66
2022/02/22 03:29:24;;;;;;;19.10;16.57;;;;;;;10.29;70.98;100296.13;2089481;28;20184;-66
2022/02/22 03:30:26;;;;;;;19.97;16.47;;;;;;;10.33;70.70;100304.34;2089846;28;20563;-66
2022/02/22 03:31:28;;;;;;;18.87;16.17;;;;;;;10.40;70.38;100306.94;2089724;28;20547;-66
2022/02/22 03:32:29;;;;;;;18.40;16.27;;;;;;;10.34;70.08;100276.19;2080912;28;20444;-66
2022/02/22 03:33:33;;;;;;;19.37;16.03;;;;;;;10.47;69.83;100296.41;2080790;28;20455;-66
2022/02/22 03:34:34;;;;;;;18.13;14.53;;;;;;;10.52;69.56;100301.44;2089704;28;20196;-66
2022/02/22 03:35:35;;;;;;;17.77;14.93;;;;;;;10.55;69.29;100303.28;2089890;28;20457;-66
2022/02/22 03:36:35;;;;;;;17.47;15.27;;;;;;;10.50;69.21;100289.22;2080038;28;20298;-66
2022/02/22 03:37:36;;;;;;;15.10;13.50;;;;;;;10.57;69.35;100302.88;2080857;28;20424;-66
2022/02/22 03:38:36;;;;;;;17.33;14.43;;;;;;;10.55;69.29;100302.53;2089757;28;20263;-66
2022/02/22 03:39:37;;;;;;;14.90;13.10;;;;;;;9.74;69.21;100179.41;2088979;28;20188;-66
2022/02/22 03:40:38;;;;;;;16.90;13.93;;;;;;;9.70;68.80;100157.38;2089708;28;20188;-66
2022/02/22 03:41:38;;;;;;;17.90;14.47;;;;;;;10.63;68.71;100304.66;2089376;28;20655;-66
2022/02/22 03:42:43;;;;;;;16.97;13.67;;;;;;;10.63;68.84;100303.88;2089664;28;20180;-66
2022/02/22 03:43:44;;;;;;;16.00;13.60;;;;;;;10.64;68.99;100305.41;2089605;28;20199;-66
2022/02/22 03:44:45;;;;;;;16.10;14.07;;;;;;;10.63;69.17;100303.88;2089676;28;20424;-66
2022/02/22 03:45:45;;;;;;;17.30;14.47;;;;;;;10.55;68.78;100302.53;2089551;28;20435;-66
2022/02/22 03:46:46;;;;;;;16.63;14.87;;;;;;;10.63;68.92;100309.41;2088941;28;20192;-66
2022/02/22 03:47:46;;;;;;;16.50;13.87;;;;;;;10.68;68.78;100311.63;2089715;28;20686;-66
2022/02/22 03:48:47;;;;;;;15.37;13.87;;;;;;;10.66;68.86;100314.84;2085899;28;20246;-66
2022/02/22 03:49:47;;;;;;;15.70;13.43;;;;;;;10.67;68.74;100319.16;2089259;28;20689;-66
2022/02/22 03:50:48;;;;;;;16.63;13.47;;;;;;;10.69;68.99;100315.97;2089736;28;20596;-66
2022/02/22 03:51:49;;;;;;;16.97;12.90;;;;;;;10.58;68.60;100298.88;2089588;28;20192;-66
2022/02/22 03:52:50;;;;;;;15.67;13.40;;;;;;;10.66;68.51;100325.94;2089705;28;20192;-66
2022/02/22 03:53:51;;;;;;;15.03;12.67;;;;;;;10.69;68.75;100318.72;2089683;28;20203;-66
2022/02/22 03:54:51;;;;;;;15.13;12.37;;;;;;;10.72;68.60;100320.63;2089428;28;20434;-66
2022/02/22 03:55:52;;;;;;;15.80;13.20;;;;;;;10.72;68.37;100315.09;2089491;28;20192;-66
2022/02/22 03:56:52;;;;;;;13.53;12.07;;;;;;;10.77;68.43;100322.88;2089280;28;20590;-66
2022/02/22 03:57:53;;;;;;;13.27;11.67;;;;;;;10.77;68.24;100323.63;2089427;28;20196;-66
2022/02/22 03:58:53;;;;;;;13.17;11.73;;;;;;;10.79;68.26;100323.19;2088892;28;20223;-66
2022/02/22 03:59:54;;;;;;;12.00;10.67;;;;;;;10.82;67.84;100333.41;2089359;28;20212;-66
2022/02/22 04:00:54;;;;;;;12.40;11.10;;;;;;;10.76;68.14;100333.16;2089607;28;20192;-66
2022/02/22 04:01:55;;;;;;;12.97;11.07;;;;;;;10.69;68.23;100335.34;2089410;28;20191;-66
2022/02/22 04:02:56;;;;;;;13.37;10.90;;;;;;;10.71;68.18;100333.69;2089690;28;20190;-66
2022/02/22 04:03:56;;;;;;;9.33;8.33;;;;;;;10.75;67.63;100330.81;2089612;28;20188;-66
2022/02/22 04:04:57;;;;;;;8.67;6.93;;;;;;;10.59;67.75;100331.69;2089671;28;20192;-66
2022/02/22 04:05:58;;;;;;;7.93;6.87;;;;;;;10.48;68.14;100333.97;2089202;28;20273;-66
2022/02/22 04:06:59;;;;;;;7.80;7.00;;;;;;;10.51;68.21;100330.31;2089433;28;20184;-66
2022/02/22 04:08:00;;;;;;;11.00;7.97;;;;;;;10.47;68.41;100331.66;2080613;28;20247;-66
2022/02/22 04:09:00;;;;;;;8.33;7.07;;;;;;;10.50;68.26;100333.56;2079801;28;20500;-67
2022/02/22 04:10:02;;;;;;;7.63;6.73;;;;;;;10.55;68.10;100328.22;2090489;28;20275;-66
2022/02/22 04:11:03;;;;;;;9.77;7.33;;;;;;;10.56;67.93;100329.03;2097861;28;20192;-66
2022/02/22 04:12:04;;;;;;;8.37;7.20;;;;;;;10.36;67.95;100292.38;2097911;28;20429;-66
2022/02/22 04:13:04;;;;;;;9.23;8.23;;;;;;;10.21;67.92;100277.38;2097736;28;20191;-66
2022/02/22 04:14:05;;;;;;;8.60;7.47;;;;;;;10.57;67.93;100328.59;2097700;28;20519;-66
2022/02/22 04:15:08;;;;;;;8.77;7.50;;;;;;;10.41;68.18;100314.78;2097742;28;20184;-66
2022/02/22 04:16:08;;;;;;;8.63;7.77;;;;;;;10.33;68.30;100318.19;2097147;28;20192;-66
2022/02/22 04:17:09;;;;;;;9.37;7.70;;;;;;;10.42;68.63;100326.63;2097630;28;20454;-66
2022/02/22 04:18:10;;;;;;;7.43;6.43;;;;;;;10.45;68.22;100328.53;2097664;28;20187;-66
2022/02/22 04:19:10;;;;;;;8.23;7.00;;;;;;;10.45;68.02;100331.31;2096999;28;20223;-66
2022/02/22 04:20:11;;;;;;;7.80;5.50;;;;;;;10.42;67.15;100321.88;2097622;28;20269;-66
2022/02/22 04:21:12;;;;;;;7.33;5.40;;;;;;;10.37;67.37;100327.19;2097694;28;20186;-66
2022/02/22 04:22:12;;;;;;;6.43;5.20;;;;;;;10.34;67.27;100333.56;2097465;28;20414;-66
2022/02/22 04:23:13;;;;;;;4.97;4.43;;;;;;;10.23;67.48;100325.56;2097707;28;20580;-66
2022/02/22 04:24:13;;;;;;;5.53;4.70;;;;;;;9.97;67.85;100304.50;2097737;28;20190;-66
2022/02/22 04:25:14;;;;;;;4.87;4.37;;;;;;;10.17;67.80;100327.31;2097776;28;20201;-66
2022/02/22 04:26:14;;;;;;;5.97;4.63;;;;;;;10.04;67.54;100307.09;2097252;28;20195;-66
2022/02/22 04:27:15;;;;;;;4.57;4.07;;;;;;;10.02;67.41;100317.81;2097606;28;20188;-66
2022/02/22 04:28:15;;;;;;;5.63;4.37;;;;;;;10.08;67.60;100323.59;2097607;28;20201;-66
2022/02/22 04:29:16;;;;;;;5.10;4.57;;;;;;;10.10;67.59;100323.97;2090239;28;20285;-66
2022/02/22 04:30:17;;;;;;;5.77;4.57;;;;;;;9.84;67.59;100277.97;2089320;28;20665;-66
2022/02/22 04:31:17;;;;;;;4.70;4.20;;;;;;;10.06;67.77;100323.28;2089281;28;20188;-66
2022/02/22 04:32:17;;;;;;;4.57;4.10;;;;;;;10.01;67.76;100309.94;2089501;28;20191;-67
2022/02/22 04:33:18;;;;;;;6.50;4.83;;;;;;;10.04;67.83;100317.41;2089414;28;20192;-68
2022/02/22 04:34:19;;;;;;;5.53;4.60;;;;;;;9.98;68.06;100316.34;2089177;28;20225;-68
2022/02/22 04:35:19;;;;;;;5.10;4.50;;;;;;;9.96;67.96;100322.31;2089300;28;20224;-68
2022/02/22 04:36:20;;;;;;;5.07;4.20;;;;;;;9.90;67.65;100321.28;2088806;28;20704;-68
2022/02/22 04:37:20;;;;;;;4.80;4.30;;;;;;;9.85;67.90;100323.81;2089323;28;20187;-68
2022/02/22 04:38:21;;;;;;;5.67;4.40;;;;;;;9.75;67.78;100299.94;2089410;28;20191;-68
2022/02/22 04:39:22;;;;;;;6.30;4.97;;;;;;;9.86;68.12;100325.34;2088549;28;20193;-68